Time;durP1;ratioP1;P1;durP2;ratioP2;P2;SDS_P1;SDS_P2;PMS_P1;PMS_P2;Temp;Humidity;BMP_temperature;BMP_pressure;BME280_temperature;BME280_humidity;BME280_pressure;Samples;Min_cycle;Max_cycle;Signal;HPM_P1;HPM_P2
2022/08/15 00:00:54;;;;;;;13.15;11.18;;;21.90;99.90;;;;;;5087701;28;20332;-46
2022/08/15 00:03:29;;;;;;;11.75;10.63;;;21.90;99.90;;;;;;5088622;28;20468;-45
2022/08/15 00:05:56;;;;;;;11.50;10.43;;;21.90;99.90;;;;;;5088653;28;20034;-46
2022/08/15 00:08:22;;;;;;;12.32;11.13;;;21.90;99.90;;;;;;5088251;28;20235;-45
2022/08/15 00:10:49;;;;;;;11.98;10.88;;;21.90;99.90;;;;;;5091585;28;20103;-46
2022/08/15 00:13:22;;;;;;;12.65;11.35;;;21.80;99.90;;;;;;5092126;28;20269;-45
2022/08/15 00:15:49;;;;;;;12.25;11.05;;;21.80;99.90;;;;;;5092150;28;20081;-46
2022/08/15 00:18:15;;;;;;;11.70;10.25;;;21.80;99.90;;;;;;5092196;28;20046;-45
2022/08/15 00:20:42;;;;;;;12.43;11.15;;;21.80;99.90;;;;;;5091313;28;20048;-47
2022/08/15 00:23:13;;;;;;;12.57;11.32;;;21.80;99.90;;;;;;5091803;28;20709;-46
2022/08/15 00:25:40;;;;;;;12.30;11.10;;;21.70;99.90;;;;;;5088390;28;20509;-45
2022/08/15 00:28:07;;;;;;;11.45;10.35;;;21.70;99.90;;;;;;5083571;28;20032;-46
2022/08/15 00:30:36;;;;;;;11.63;10.43;;;21.70;99.90;;;;;;5091257;28;20112;-45
2022/08/15 00:33:03;;;;;;;12.65;10.45;;;21.70;99.90;;;;;;5090272;28;20162;-45
2022/08/15 00:35:41;;;;;;;12.05;10.48;;;21.70;99.90;;;;;;5091394;28;20028;-45
2022/08/15 00:38:13;;;;;;;13.20;10.68;;;21.70;99.90;;;;;;5075116;28;20472;-47
2022/08/15 00:43:26;;;;;;;15.45;11.30;;;21.60;99.90;;;;;;5091564;28;20118;-45
2022/08/15 00:45:52;;;;;;;12.20;10.90;;;21.60;99.90;;;;;;5091186;28;20032;-44
2022/08/15 00:51:17;;;;;;;10.88;9.75;;;21.50;99.90;;;;;;5077897;28;20036;-45
2022/08/15 00:53:46;;;;;;;12.02;10.48;;;21.50;99.90;;;;;;5049915;28;20026;-45
2022/08/15 00:56:13;;;;;;;11.43;10.37;;;21.50;99.90;;;;;;5049834;28;20029;-45
2022/08/15 00:58:41;;;;;;;11.63;10.52;;;21.40;99.90;;;;;;5051059;28;20025;-45
2022/08/15 01:01:08;;;;;;;12.02;10.85;;;21.40;99.90;;;;;;5065120;28;20020;-45
2022/08/15 01:03:38;;;;;;;11.73;10.52;;;21.30;99.90;;;;;;5082573;28;20023;-45
2022/08/15 01:06:04;;;;;;;11.52;10.32;;;21.30;99.90;;;;;;5091528;28;20016;-46
2022/08/15 01:08:33;;;;;;;11.93;10.20;;;21.30;99.90;;;;;;5091110;28;20410;-43
2022/08/15 01:11:03;;;;;;;12.25;10.68;;;21.30;99.90;;;;;;5088908;28;20123;-43
2022/08/15 01:13:34;;;;;;;13.68;10.73;;;21.30;99.90;;;;;;5090916;28;20020;-46
2022/08/15 01:16:00;;;;;;;11.52;10.43;;;21.20;99.90;;;;;;5089182;28;20254;-42
2022/08/15 01:18:27;;;;;;;11.55;10.40;;;21.10;99.90;;;;;;5090762;28;20028;-43
2022/08/15 01:20:57;;;;;;;11.82;10.73;;;21.10;99.90;;;;;;5089435;28;20031;-43
2022/08/15 01:24:09;;;;;;;13.68;10.68;;;21.00;99.90;;;;;;5090885;28;20024;-44
2022/08/15 01:26:35;;;;;;;11.98;10.73;;;21.00;99.90;;;;;;5090747;28;20082;-44
2022/08/15 01:29:00;;;;;;;12.25;11.02;;;20.90;99.90;;;;;;5090705;28;20478;-44
2022/08/15 01:31:26;;;;;;;11.32;10.05;;;20.90;99.90;;;;;;5087237;28;20020;-43
2022/08/15 01:33:57;;;;;;;11.55;10.35;;;20.90;99.90;;;;;;5071060;28;20048;-44
2022/08/15 01:36:26;;;;;;;11.80;10.75;;;20.80;99.90;;;;;;5068554;28;20377;-44
2022/08/15 01:39:08;;;;;;;11.20;10.07;;;20.80;99.90;;;;;;5069636;28;20051;-45
2022/08/15 01:41:43;;;;;;;13.70;11.77;;;20.70;99.90;;;;;;5067713;28;20028;-47
2022/08/15 01:44:19;;;;;;;12.95;11.65;;;20.70;99.90;;;;;;5067446;28;20101;-44
2022/08/15 01:46:57;;;;;;;12.48;11.15;;;20.70;99.90;;;;;;5069684;28;20082;-46
2022/08/15 01:49:51;;;;;;;11.95;10.85;;;20.70;99.90;;;;;;5068659;28;20039;-45
2022/08/15 01:52:21;;;;;;;13.90;10.68;;;20.60;99.90;;;;;;5064826;28;20463;-45
2022/08/15 01:54:48;;;;;;;10.20;9.30;;;20.60;99.90;;;;;;5065949;28;20543;-44
2022/08/15 01:57:14;;;;;;;11.02;9.90;;;20.60;99.90;;;;;;5069323;28;20616;-44
2022/08/15 01:59:39;;;;;;;15.23;10.68;;;20.60;99.90;;;;;;5067787;28;20029;-44
2022/08/15 02:02:09;;;;;;;11.82;10.57;;;20.50;99.90;;;;;;5067668;28;20112;-44
2022/08/15 02:04:38;;;;;;;11.35;9.85;;;20.50;99.90;;;;;;5071326;28;20038;-44
2022/08/15 02:07:08;;;;;;;11.27;10.18;;;20.50;99.90;;;;;;5068366;28;20384;-45
2022/08/15 02:09:34;;;;;;;;;;;20.50;99.90;;;;;;5071830;28;20031;-46
2022/08/15 02:12:00;;;;;;;12.60;11.35;;;20.40;99.90;;;;;;5068381;28;19909;-44
2022/08/15 02:14:27;;;;;;;11.15;10.05;;;20.30;99.90;;;;;;5066903;28;20021;-44
2022/08/15 02:16:53;;;;;;;11.85;10.75;;;20.30;99.90;;;;;;5067067;28;20020;-44
2022/08/15 02:19:18;;;;;;;12.80;11.50;;;20.20;99.90;;;;;;5077303;28;20140;-45
2022/08/15 02:21:47;;;;;;;12.07;10.63;;;20.20;99.90;;;;;;5069274;28;20024;-45
2022/08/15 02:24:20;;;;;;;13.05;11.27;;;20.20;99.90;;;;;;5070504;28;20024;-44
2022/08/15 02:26:46;;;;;;;13.52;12.13;;;20.10;99.90;;;;;;5070150;28;20060;-44
2022/08/15 02:29:12;;;;;;;12.48;11.15;;;20.10;99.90;;;;;;5069927;28;20469;-44
2022/08/15 02:31:38;;;;;;;14.98;11.73;;;20.10;99.90;;;;;;5070377;28;20119;-45
2022/08/15 02:34:04;;;;;;;12.32;11.15;;;20.00;99.90;;;;;;5068687;28;20029;-44
2022/08/15 02:36:32;;;;;;;12.80;11.40;;;20.00;99.90;;;;;;5068732;28;20028;-45
2022/08/15 02:39:00;;;;;;;12.77;11.48;;;20.00;99.90;;;;;;5067193;28;20493;-45
2022/08/15 02:41:33;;;;;;;13.85;11.30;;;19.90;99.90;;;;;;5066618;28;20260;-44
2022/08/15 02:44:00;;;;;;;14.65;12.73;;;19.90;99.90;;;;;;5068683;28;20047;-45
2022/08/15 02:46:26;;;;;;;15.90;12.00;;;19.90;99.90;;;;;;5068858;28;20059;-44
2022/08/15 02:48:52;;;;;;;12.80;11.60;;;19.80;99.90;;;;;;5067372;28;20495;-45
2022/08/15 02:51:19;;;;;;;13.85;12.35;;;19.80;99.90;;;;;;5069555;28;20021;-44
2022/08/15 02:53:47;;;;;;;15.35;11.82;;;19.80;99.90;;;;;;5068470;28;20093;-43
2022/08/15 02:56:14;;;;;;;14.25;11.82;;;19.70;99.90;;;;;;5068409;28;20013;-44
2022/08/15 02:58:41;;;;;;;15.27;12.35;;;19.70;99.90;;;;;;5071065;28;20291;-44
2022/08/15 03:01:10;;;;;;;15.23;12.48;;;19.70;99.90;;;;;;5066089;28;20481;-44
2022/08/15 03:03:38;;;;;;;13.18;11.85;;;19.70;99.90;;;;;;5066659;28;20433;-45
2022/08/15 03:06:08;;;;;;;12.63;11.43;;;19.70;99.90;;;;;;5071098;28;20027;-45
2022/08/15 03:08:35;;;;;;;14.68;12.25;;;19.70;99.90;;;;;;5068417;28;20419;-45
2022/08/15 03:11:04;;;;;;;13.77;12.43;;;19.70;99.90;;;;;;5066897;28;20039;-43
2022/08/15 03:13:31;;;;;;;15.07;12.70;;;19.70;99.90;;;;;;5071018;28;20404;-45
2022/08/15 03:15:57;;;;;;;14.30;12.90;;;19.60;99.90;;;;;;5066863;28;20020;-46
2022/08/15 03:18:25;;;;;;;13.68;12.38;;;19.60;99.90;;;;;;5068934;28;20017;-45
2022/08/15 03:20:52;;;;;;;14.75;13.27;;;19.60;99.90;;;;;;5079895;28;20028;-45
2022/08/15 03:23:25;;;;;;;17.20;12.85;;;19.60;99.90;;;;;;5073887;28;20029;-45
2022/08/15 03:25:52;;;;;;;13.95;12.60;;;19.50;99.90;;;;;;5069633;28;20025;-45
2022/08/15 03:28:20;;;;;;;14.50;12.73;;;19.50;99.90;;;;;;5077718;28;20086;-45
2022/08/15 03:30:46;;;;;;;16.17;12.82;;;19.50;99.90;;;;;;5089514;28;20116;-47
2022/08/15 03:33:12;;;;;;;14.93;13.25;;;19.50;99.90;;;;;;5083021;28;20446;-49
2022/08/15 03:35:44;;;;;;;14.55;13.05;;;19.40;99.90;;;;;;5081329;28;20032;-48
2022/08/15 03:38:10;;;;;;;14.82;13.13;;;19.40;99.90;;;;;;5074258;28;20086;-48
2022/08/15 03:40:37;;;;;;;15.07;12.82;;;19.40;99.90;;;;;;5068235;28;20017;-47
2022/08/15 03:43:11;;;;;;;18.13;13.75;;;19.30;99.90;;;;;;5068753;28;20555;-48
2022/08/15 03:45:36;;;;;;;16.73;13.80;;;19.40;99.90;;;;;;5072620;28;20108;-47
2022/08/15 03:48:02;;;;;;;14.77;13.25;;;19.30;99.90;;;;;;5072504;28;20091;-47
2022/08/15 03:50:29;;;;;;;15.15;13.65;;;19.30;99.90;;;;;;5064934;28;20498;-45
2022/08/15 03:52:58;;;;;;;16.45;14.77;;;19.20;99.90;;;;;;5083593;28;20054;-46
2022/08/15 03:55:25;;;;;;;14.43;12.93;;;19.20;99.90;;;;;;5083349;28;20036;-46
2022/08/15 03:57:52;;;;;;;15.82;14.05;;;19.20;99.90;;;;;;5080257;28;20028;-45
2022/08/15 04:00:23;;;;;;;16.48;14.30;;;19.20;99.90;;;;;;5071970;28;20025;-46
2022/08/15 04:02:48;;;;;;;15.70;14.10;;;19.20;99.90;;;;;;5077004;28;20032;-45
2022/08/15 04:05:14;;;;;;;18.23;13.98;;;19.20;99.90;;;;;;5089460;28;20195;-46
2022/08/15 04:07:39;;;;;;;17.80;14.35;;;19.20;99.90;;;;;;5086611;28;20048;-46
2022/08/15 04:10:12;;;;;;;15.23;13.63;;;19.20;99.90;;;;;;5087393;28;20032;-47
2022/08/15 04:12:40;;;;;;;17.42;15.02;;;19.20;99.90;;;;;;5087762;28;20058;-45
2022/08/15 04:15:08;;;;;;;17.13;14.57;;;19.20;99.90;;;;;;5083434;28;20090;-45
2022/08/15 04:17:34;;;;;;;15.98;14.27;;;19.20;99.90;;;;;;5091961;28;20032;-45
2022/08/15 04:20:00;;;;;;;15.75;14.15;;;19.20;99.90;;;;;;5092129;28;20028;-46
2022/08/15 04:22:41;;;;;;;14.85;13.30;;;19.20;99.90;;;;;;5091358;28;20067;-46
2022/08/15 04:25:09;;;;;;;;;;;19.20;99.90;;;;;;5083443;28;20024;-45
2022/08/15 04:27:34;;;;;;;15.48;13.88;;;19.20;99.90;;;;;;5083163;28;19965;-45
2022/08/15 04:30:00;;;;;;;18.58;14.95;;;19.10;99.90;;;;;;5091788;28;20647;-47
2022/08/15 04:32:26;;;;;;;16.15;14.43;;;19.20;99.90;;;;;;5091062;28;20051;-47
2022/08/15 04:34:54;;;;;;;14.95;13.35;;;19.20;99.90;;;;;;5091604;28;20396;-45
2022/08/15 04:37:21;;;;;;;16.55;14.63;;;19.20;99.90;;;;;;5091847;28;20017;-47
2022/08/15 04:39:48;;;;;;;15.23;13.55;;;19.20;99.90;;;;;;5091591;28;20016;-46
2022/08/15 04:42:14;;;;;;;14.68;12.55;;;19.20;99.90;;;;;;5081734;28;20032;-45
2022/08/15 04:44:40;;;;;;;16.23;13.13;;;19.20;99.90;;;;;;5083062;28;20038;-49
2022/08/15 04:47:05;;;;;;;15.43;13.82;;;19.20;99.90;;;;;;5084716;28;20017;-45
2022/08/15 04:49:32;;;;;;;15.23;13.73;;;19.30;99.90;;;;;;5081919;28;20032;-45
2022/08/15 04:52:10;;;;;;;16.40;14.60;;;19.30;99.90;;;;;;5090987;28;20437;-45
2022/08/15 04:54:36;;;;;;;14.57;13.18;;;19.40;99.90;;;;;;5083532;28;20020;-45
2022/08/15 04:57:02;;;;;;;15.07;13.57;;;19.40;99.90;;;;;;5082058;28;20077;-46
2022/08/15 04:59:27;;;;;;;16.90;14.32;;;19.50;99.90;;;;;;5090296;28;20027;-49
2022/08/15 05:01:53;;;;;;;16.55;13.75;;;19.50;99.90;;;;;;5090942;28;20028;-46
2022/08/15 05:04:19;;;;;;;14.80;13.05;;;19.50;99.90;;;;;;5091051;28;20534;-45
2022/08/15 05:06:45;;;;;;;15.02;13.38;;;19.60;99.90;;;;;;5091098;28;20028;-48
2022/08/15 05:09:10;;;;;;;21.92;15.88;;;19.70;99.90;;;;;;5090839;28;20267;-45
2022/08/15 05:11:36;;;;;;;15.35;13.85;;;19.70;99.90;;;;;;5089241;28;20090;-46
2022/08/15 05:14:02;;;;;;;14.48;12.90;;;19.70;99.90;;;;;;5078934;28;20471;-48
2022/08/15 05:16:28;;;;;;;14.90;13.32;;;19.80;99.90;;;;;;5089818;28;20046;-49
2022/08/15 05:18:53;;;;;;;15.35;13.77;;;19.90;99.90;;;;;;5091188;28;20294;-47
2022/08/15 05:21:19;;;;;;;16.52;12.70;;;19.90;99.90;;;;;;5090345;28;20028;-46
2022/08/15 05:23:44;;;;;;;14.45;12.95;;;20.00;99.90;;;;;;5082790;28;20093;-46
2022/08/15 05:26:12;;;;;;;15.68;13.13;;;20.10;99.90;;;;;;5082438;28;20023;-47
2022/08/15 05:28:38;;;;;;;16.80;13.38;;;20.10;99.90;;;;;;5083563;28;20030;-47
2022/08/15 05:31:07;;;;;;;14.45;12.95;;;20.20;99.90;;;;;;5081405;28;20095;-46
2022/08/15 05:33:34;;;;;;;14.50;13.05;;;20.30;99.90;;;;;;5086854;28;20337;-48
2022/08/15 05:36:02;;;;;;;15.45;13.85;;;20.30;99.90;;;;;;5082173;28;20093;-47
2022/08/15 05:38:35;;;;;;;17.98;13.65;;;20.40;99.90;;;;;;5090557;28;20027;-47
2022/08/15 05:41:28;;;;;;;15.70;14.10;;;20.40;99.90;;;;;;5068801;28;20024;-47
2022/08/15 05:44:23;;;;;;;17.63;14.07;;;20.50;99.90;;;;;;5078612;28;20033;-48
2022/08/15 05:47:04;;;;;;;19.38;13.95;;;20.50;99.90;;;;;;5049563;28;20102;-45
2022/08/15 05:49:42;;;;;;;15.35;13.80;;;20.60;99.90;;;;;;5050194;28;20431;-48
2022/08/15 05:52:22;;;;;;;15.98;14.38;;;20.60;99.90;;;;;;5048093;28;20036;-46
2022/08/15 05:55:23;;;;;;;14.55;13.05;;;20.60;99.90;;;;;;5071039;28;20051;-47
2022/08/15 05:58:05;;;;;;;16.08;13.48;;;20.80;99.90;;;;;;5050295;28;20074;-46
2022/08/15 06:00:32;;;;;;;15.05;13.18;;;20.90;99.90;;;;;;5049880;28;20388;-47
2022/08/15 06:03:15;;;;;;;15.65;12.93;;;20.90;99.90;;;;;;5049939;28;20032;-47
2022/08/15 06:05:52;;;;;;;14.90;13.30;;;21.00;99.90;;;;;;5050243;28;20025;-48
2022/08/15 06:08:24;;;;;;;16.85;13.77;;;21.10;99.90;;;;;;5049578;28;20037;-46
2022/08/15 06:10:55;;;;;;;15.60;13.25;;;21.20;99.90;;;;;;5048772;28;20079;-48
2022/08/15 06:13:46;;;;;;;19.60;13.85;;;21.30;99.90;;;;;;5049789;28;20021;-48
2022/08/15 06:16:19;;;;;;;14.30;12.80;;;21.40;99.90;;;;;;5048975;28;20118;-49
2022/08/15 06:18:46;;;;;;;14.43;12.98;;;21.50;99.90;;;;;;5070914;28;20178;-47
2022/08/15 06:21:30;;;;;;;14.65;13.10;;;21.60;99.90;;;;;;5085342;28;20020;-46
2022/08/15 06:24:30;;;;;;;15.63;13.48;;;21.70;99.90;;;;;;5072198;28;20028;-48
2022/08/15 06:27:11;;;;;;;17.08;12.85;;;21.70;99.90;;;;;;5049420;28;20515;-46
2022/08/15 06:30:03;;;;;;;16.75;12.82;;;21.80;99.90;;;;;;5055719;28;20032;-46
2022/08/15 06:32:45;;;;;;;15.95;13.70;;;21.90;99.90;;;;;;5080565;28;20028;-46
2022/08/15 06:35:42;;;;;;;19.42;13.05;;;22.10;99.90;;;;;;5089561;28;20063;-48
2022/08/15 06:38:19;;;;;;;14.68;13.32;;;22.10;99.90;;;;;;5080553;28;20021;-49
2022/08/15 06:40:54;;;;;;;16.05;12.95;;;22.30;99.90;;;;;;5073129;28;20096;-46
2022/08/15 06:43:19;;;;;;;16.30;14.15;;;22.40;99.90;;;;;;5082067;28;20028;-49
2022/08/15 06:45:48;;;;;;;17.05;14.05;;;22.50;99.90;;;;;;5082180;28;20032;-49
2022/08/15 06:48:18;;;;;;;13.55;12.07;;;22.60;99.90;;;;;;5089237;28;20024;-47
2022/08/15 06:50:50;;;;;;;17.25;13.32;;;22.80;99.90;;;;;;5089433;28;20036;-48
2022/08/15 06:53:36;;;;;;;15.40;12.68;;;22.90;99.90;;;;;;5083307;28;20036;-47
2022/08/15 06:56:24;;;;;;;14.07;12.52;;;23.20;99.90;;;;;;5084585;28;20024;-46
2022/08/15 06:59:16;;;;;;;13.38;11.57;;;23.50;99.90;;;;;;5078476;28;20031;-47
2022/08/15 07:02:09;;;;;;;15.18;13.43;;;23.70;99.90;;;;;;5048208;28;20021;-47
2022/08/15 07:04:54;;;;;;;14.02;12.63;;;23.80;99.90;;;;;;5080667;28;20075;-46
2022/08/15 07:07:37;;;;;;;13.05;11.85;;;23.80;99.90;;;;;;5089076;28;20016;-49
2022/08/15 07:10:16;;;;;;;14.70;12.23;;;24.00;99.90;;;;;;5076661;28;20012;-48
2022/08/15 07:13:03;;;;;;;17.03;13.63;;;24.00;99.90;;;;;;5088079;28;20023;-50
2022/08/15 07:15:44;;;;;;;13.98;12.48;;;24.10;99.90;;;;;;5077976;28;20259;-46
2022/08/15 07:18:36;;;;;;;13.50;12.02;;;24.20;99.90;;;;;;5087874;28;20040;-48
2022/08/15 07:21:15;;;;;;;14.70;13.23;;;24.40;99.90;;;;;;5088083;28;20024;-49
2022/08/15 07:24:09;;;;;;;14.15;12.65;;;24.50;99.90;;;;;;5088636;28;20020;-47
2022/08/15 07:26:50;;;;;;;15.90;14.30;;;24.50;99.50;;;;;;5078573;28;20107;-48
2022/08/15 07:29:31;;;;;;;19.30;12.82;;;24.60;99.30;;;;;;5085822;28;20020;-47
2022/08/15 07:32:34;;;;;;;15.50;13.90;;;24.70;99.40;;;;;;5085413;28;20024;-49
2022/08/15 07:35:04;;;;;;;14.50;12.95;;;24.80;99.00;;;;;;5071567;28;20316;-45
2022/08/15 07:37:34;;;;;;;14.97;13.30;;;25.00;98.30;;;;;;5068413;28;20013;-47
2022/08/15 07:40:06;;;;;;;19.27;12.95;;;25.10;98.30;;;;;;5068375;28;20334;-47
2022/08/15 07:42:39;;;;;;;15.45;13.35;;;25.20;98.10;;;;;;5069635;28;20153;-47
2022/08/15 07:45:10;;;;;;;15.57;13.68;;;25.40;97.40;;;;;;5079840;28;20251;-49
2022/08/15 07:47:36;;;;;;;15.80;13.57;;;25.60;96.70;;;;;;5085904;28;20035;-48
2022/08/15 07:50:26;;;;;;;16.27;13.50;;;25.70;96.70;;;;;;5079909;28;20247;-49
2022/08/15 07:53:16;;;;;;;17.95;13.00;;;25.90;96.30;;;;;;5087325;28;20367;-47
2022/08/15 07:55:43;;;;;;;14.70;12.32;;;26.10;96.00;;;;;;5088420;28;20064;-48
2022/08/15 07:58:19;;;;;;;14.50;12.20;;;26.30;95.80;;;;;;5085581;28;20558;-48
2022/08/15 08:00:52;;;;;;;13.23;11.77;;;26.60;95.50;;;;;;5073402;28;20355;-47
2022/08/15 08:03:29;;;;;;;16.55;12.93;;;26.70;95.10;;;;;;5082159;28;20070;-48
2022/08/15 08:06:19;;;;;;;13.25;11.95;;;27.00;93.50;;;;;;5079790;28;20039;-48
2022/08/15 08:08:59;;;;;;;13.80;12.20;;;27.30;93.20;;;;;;5083268;28;20093;-49
2022/08/15 08:11:42;;;;;;;13.35;11.95;;;27.50;93.20;;;;;;5078929;28;20036;-47
2022/08/15 08:14:21;;;;;;;12.32;11.13;;;27.80;92.40;;;;;;5084906;28;20031;-45
2022/08/15 08:16:56;;;;;;;12.98;11.10;;;28.30;91.40;;;;;;5072843;28;20406;-47
2022/08/15 08:19:44;;;;;;;14.65;11.02;;;28.90;90.80;;;;;;5083415;28;20023;-47
2022/08/15 08:22:20;;;;;;;14.43;10.70;;;30.00;88.40;;;;;;5078982;28;20032;-46
2022/08/15 08:25:26;;;;;;;11.00;9.65;;;31.30;84.70;;;;;;5085603;28;20020;-47
2022/08/15 08:28:02;;;;;;;11.63;9.48;;;33.50;75.50;;;;;;5075211;28;20399;-47
2022/08/15 08:30:37;;;;;;;10.73;8.45;;;34.20;72.30;;;;;;5079079;28;20539;-47
2022/08/15 08:33:48;;;;;;;12.98;8.77;;;35.00;67.90;;;;;;5083030;28;20053;-49
2022/08/15 08:36:32;;;;;;;9.52;8.57;;;36.50;62.70;;;;;;5091462;28;20120;-50
2022/08/15 08:39:08;;;;;;;9.55;8.25;;;37.30;60.40;;;;;;5092077;28;20349;-47
2022/08/15 08:42:18;;;;;;;9.77;8.25;;;37.80;57.90;;;;;;5091005;28;20046;-49
2022/08/15 08:45:06;;;;;;;8.52;7.65;;;38.60;56.10;;;;;;5075649;28;20041;-49
2022/08/15 08:47:40;;;;;;;8.55;7.75;;;39.90;52.00;;;;;;5082529;28;20020;-49
2022/08/15 08:50:31;;;;;;;10.75;8.15;;;40.00;51.90;;;;;;5091332;28;20109;-48
2022/08/15 08:53:00;;;;;;;9.40;6.82;;;40.20;49.90;;;;;;5091400;28;20021;-49
2022/08/15 08:55:28;;;;;;;;;;;41.00;48.80;;;;;;5085717;28;20024;-54
2022/08/15 08:57:58;;;;;;;8.65;6.50;;;41.10;48.60;;;;;;5085421;28;20018;-47
2022/08/15 09:00:36;;;;;;;8.23;6.53;;;41.60;46.50;;;;;;5089869;28;20024;-46
2022/08/15 09:03:27;;;;;;;7.20;6.50;;;42.40;46.20;;;;;;5078805;28;20017;-47
2022/08/15 09:05:55;;;;;;;8.30;6.63;;;41.70;46.60;;;;;;5044039;28;20048;-47
2022/08/15 09:08:32;;;;;;;7.03;6.32;;;41.90;46.60;;;;;;5078433;28;20434;-48
2022/08/15 09:11:06;;;;;;;8.07;6.45;;;41.50;46.70;;;;;;5087233;28;20024;-49
2022/08/15 09:13:34;;;;;;;6.60;5.65;;;41.90;46.40;;;;;;5081959;28;20099;-47
2022/08/15 09:16:23;;;;;;;9.00;6.63;;;43.00;44.90;;;;;;5090706;28;20093;-48
2022/08/15 09:19:06;;;;;;;8.55;6.88;;;43.00;44.50;;;;;;5083722;28;20104;-48
2022/08/15 09:21:33;;;;;;;7.45;6.75;;;43.80;43.30;;;;;;5089558;28;20483;-47
2022/08/15 09:23:59;;;;;;;7.80;6.72;;;43.30;43.70;;;;;;5084596;28;20405;-46
2022/08/15 09:26:51;;;;;;;7.10;6.03;;;44.20;42.20;;;;;;5081980;28;20055;-48
2022/08/15 09:29:27;;;;;;;7.72;6.60;;;43.40;43.90;;;;;;5087856;28;20052;-47
2022/08/15 09:32:27;;;;;;;8.52;6.03;;;44.10;42.60;;;;;;5080207;28;20548;-48
2022/08/15 09:35:21;;;;;;;7.45;5.93;;;44.50;41.90;;;;;;5090713;28;20035;-48
2022/08/15 09:38:24;;;;;;;6.57;5.97;;;44.50;41.30;;;;;;5090546;28;20020;-48
2022/08/15 09:41:22;;;;;;;7.07;6.47;;;44.20;41.70;;;;;;5089405;28;20294;-48
2022/08/15 09:44:07;;;;;;;7.97;5.80;;;43.70;42.10;;;;;;5081513;28;20035;-48
2022/08/15 09:47:14;;;;;;;9.00;6.32;;;44.50;41.00;;;;;;5089760;28;20027;-48
2022/08/15 09:50:09;;;;;;;9.45;6.63;;;44.10;41.70;;;;;;5066773;28;20402;-47
2022/08/15 09:53:01;;;;;;;7.45;6.78;;;44.40;41.30;;;;;;5083482;28;20106;-48
2022/08/15 09:55:34;;;;;;;8.93;6.20;;;44.00;41.00;;;;;;5088681;28;20433;-48
2022/08/15 09:58:17;;;;;;;7.63;6.07;;;44.30;41.20;;;;;;5086793;28;20379;-47
2022/08/15 10:01:15;;;;;;;7.38;5.70;;;44.60;40.70;;;;;;5074883;28;20019;-47
2022/08/15 10:03:43;;;;;;;;;;;44.20;39.80;;;;;;5085463;28;20024;-49
2022/08/15 10:06:11;;;;;;;6.68;5.72;;;44.20;39.60;;;;;;5086413;28;19957;-50
2022/08/15 10:09:35;;;;;;;6.88;5.90;;;44.20;40.30;;;;;;5083389;28;20032;-47
2022/08/15 10:12:06;;;;;;;9.23;5.85;;;44.40;40.20;;;;;;5074595;28;20274;-49
2022/08/15 10:14:39;;;;;;;6.25;5.65;;;44.50;40.80;;;;;;5080049;28;20633;-46
2022/08/15 10:17:25;;;;;;;8.02;6.13;;;45.00;39.40;;;;;;5085288;28;20134;-46
2022/08/15 10:19:50;;;;;;;6.22;5.63;;;45.40;38.90;;;;;;5079388;28;20031;-47
2022/08/15 10:22:22;;;;;;;7.32;5.78;;;43.90;39.50;;;;;;5086089;28;20028;-48
2022/08/15 10:25:22;;;;;;;6.53;5.93;;;43.60;40.50;;;;;;5080631;28;20064;-48
2022/08/15 10:28:05;;;;;;;8.20;5.65;;;44.70;39.40;;;;;;5049550;28;20056;-50
2022/08/15 10:30:34;;;;;;;8.45;5.78;;;44.90;39.10;;;;;;5067820;28;20448;-50
2022/08/15 10:33:01;;;;;;;5.90;5.40;;;45.00;39.30;;;;;;5084552;28;20024;-47
2022/08/15 10:35:41;;;;;;;7.70;6.00;;;44.70;38.80;;;;;;5089647;28;20103;-50
2022/08/15 10:38:09;;;;;;;6.65;5.95;;;44.20;39.40;;;;;;5085292;28;20033;-50
2022/08/15 10:40:43;;;;;;;7.45;5.25;;;44.90;38.90;;;;;;5079172;28;20062;-47
2022/08/15 10:43:22;;;;;;;6.65;5.72;;;44.00;39.20;;;;;;5083959;28;20553;-50
2022/08/15 10:45:56;;;;;;;6.40;5.65;;;44.20;39.60;;;;;;5070516;28;20025;-46
2022/08/15 10:49:02;;;;;;;5.38;4.88;;;44.70;38.60;;;;;;5068988;28;20491;-49
2022/08/15 10:51:47;;;;;;;7.15;5.00;;;45.60;37.70;;;;;;5075007;28;20371;-49
2022/08/15 10:54:42;;;;;;;9.00;5.97;;;44.00;38.40;;;;;;5086377;28;20625;-48
2022/08/15 10:57:09;;;;;;;10.13;6.30;;;42.10;40.90;;;;;;5078889;28;20031;-47
2022/08/15 10:59:54;;;;;;;7.85;5.78;;;42.30;40.70;;;;;;5079071;28;20027;-46
2022/08/15 11:02:47;;;;;;;9.15;5.70;;;43.00;40.00;;;;;;5082385;28;20024;-48
2022/08/15 11:05:17;;;;;;;10.40;6.28;;;43.80;39.20;;;;;;5085705;28;20024;-49
2022/08/15 11:07:55;;;;;;;7.47;5.07;;;42.90;39.40;;;;;;5083919;28;20021;-47
2022/08/15 11:10:23;;;;;;;6.40;5.53;;;44.20;39.00;;;;;;5080165;28;20012;-48
2022/08/15 11:12:57;;;;;;;7.68;5.50;;;44.70;38.80;;;;;;5086401;28;20020;-47
2022/08/15 11:15:32;;;;;;;5.82;5.15;;;45.20;38.20;;;;;;5078347;28;20081;-48
2022/08/15 11:18:03;;;;;;;5.25;4.72;;;45.60;37.90;;;;;;5088699;28;20044;-46
2022/08/15 11:20:40;;;;;;;5.95;5.32;;;45.50;37.40;;;;;;5079041;28;20099;-48
2022/08/15 11:23:07;;;;;;;5.88;5.38;;;45.80;37.00;;;;;;5084766;28;20048;-46
2022/08/15 11:25:35;;;;;;;5.28;4.75;;;45.60;38.40;;;;;;5084438;28;20069;-48
2022/08/15 11:28:05;;;;;;;6.60;5.40;;;45.60;37.80;;;;;;5083782;28;20349;-48
2022/08/15 11:30:35;;;;;;;6.07;5.13;;;46.00;37.50;;;;;;5080876;28;20086;-47
2022/08/15 11:33:25;;;;;;;5.85;5.07;;;46.50;37.10;;;;;;5079994;28;20024;-48
2022/08/15 11:36:10;;;;;;;5.53;4.82;;;46.80;36.70;;;;;;5088363;28;20304;-48
2022/08/15 11:38:37;;;;;;;5.75;4.97;;;46.00;37.60;;;;;;5087282;28;20015;-46
2022/08/15 11:41:04;;;;;;;5.65;4.97;;;46.00;36.60;;;;;;5088003;28;20023;-49
2022/08/15 11:43:31;;;;;;;5.35;4.95;;;45.70;37.60;;;;;;5088382;28;20054;-48
2022/08/15 11:45:58;;;;;;;4.95;4.55;;;45.70;37.00;;;;;;5088227;28;20072;-49
2022/08/15 11:48:33;;;;;;;9.10;5.93;;;45.60;36.70;;;;;;5077680;28;20525;-50
2022/08/15 11:51:07;;;;;;;5.85;5.22;;;44.30;37.70;;;;;;5082550;28;20526;-49
2022/08/15 11:53:40;;;;;;;7.90;5.35;;;44.60;37.20;;;;;;5088344;28;20432;-47
2022/08/15 11:56:07;;;;;;;7.95;5.85;;;43.30;38.10;;;;;;5078989;28;20030;-47
2022/08/15 11:58:36;;;;;;;9.82;5.90;;;42.90;39.40;;;;;;5079716;28;20257;-50
2022/08/15 12:01:31;;;;;;;7.68;6.03;;;42.60;40.10;;;;;;5087988;28;20086;-49
2022/08/15 12:04:06;;;;;;;8.75;5.57;;;43.10;40.00;;;;;;5081885;28;20093;-49
2022/08/15 12:06:37;;;;;;;10.60;5.90;;;43.20;39.70;;;;;;5083003;28;20012;-50
2022/08/15 12:09:13;;;;;;;10.85;6.20;;;43.40;39.80;;;;;;5089412;28;20391;-49
2022/08/15 12:11:44;;;;;;;6.50;5.88;;;43.50;39.60;;;;;;5071514;28;20383;-51
2022/08/15 12:14:18;;;;;;;10.73;6.47;;;42.90;40.30;;;;;;5071365;28;20020;-50
2022/08/15 12:16:45;;;;;;;11.27;7.05;;;42.00;40.80;;;;;;5078918;28;20035;-50
2022/08/15 12:19:31;;;;;;;8.77;6.10;;;41.10;41.20;;;;;;5088539;28;20056;-50
2022/08/15 12:22:00;;;;;;;7.65;6.85;;;40.40;42.30;;;;;;5090411;28;20020;-48
2022/08/15 12:24:28;;;;;;;;;;;39.30;43.30;;;;;;5084086;28;20024;-48
2022/08/15 12:27:01;;;;;;;10.65;7.30;;;38.20;44.60;;;;;;5092162;28;19904;-47
2022/08/15 12:29:29;;;;;;;7.72;6.78;;;37.20;46.70;;;;;;5088969;28;20027;-49
2022/08/15 12:31:58;;;;;;;8.63;7.75;;;36.50;47.10;;;;;;5085309;28;20032;-47
2022/08/15 12:34:31;;;;;;;9.93;8.15;;;36.20;47.80;;;;;;5091738;28;20051;-46
2022/08/15 12:37:00;;;;;;;10.35;8.05;;;35.90;47.80;;;;;;5091754;28;20081;-46
2022/08/15 12:39:25;;;;;;;8.82;7.90;;;35.50;48.20;;;;;;5091760;28;20034;-47
2022/08/15 12:41:53;;;;;;;11.23;7.40;;;35.20;49.70;;;;;;5082253;28;20115;-46
2022/08/15 12:44:22;;;;;;;8.25;7.47;;;35.20;49.40;;;;;;5089392;28;20503;-49
2022/08/15 12:46:48;;;;;;;9.43;7.78;;;35.00;48.80;;;;;;5080535;28;20041;-49
2022/08/15 12:49:14;;;;;;;9.45;8.45;;;34.90;48.80;;;;;;5079703;28;20384;-47
2022/08/15 12:51:39;;;;;;;10.48;8.15;;;35.00;49.50;;;;;;5073212;28;20031;-48
2022/08/15 12:54:05;;;;;;;11.20;8.05;;;34.80;49.60;;;;;;5082907;28;20047;-49
2022/08/15 12:56:30;;;;;;;10.48;7.95;;;34.70;49.70;;;;;;5091256;28;20031;-46
2022/08/15 12:58:57;;;;;;;8.73;7.88;;;34.70;49.90;;;;;;5090130;28;20036;-49
2022/08/15 13:01:23;;;;;;;10.55;7.65;;;35.10;49.10;;;;;;5088260;28;20048;-50
2022/08/15 13:03:49;;;;;;;10.07;8.35;;;35.40;49.00;;;;;;5079434;28;20137;-47
2022/08/15 13:06:26;;;;;;;8.30;7.53;;;35.50;49.40;;;;;;5087882;28;20036;-48
2022/08/15 13:08:52;;;;;;;8.93;7.88;;;35.50;48.00;;;;;;5080899;28;20028;-47
2022/08/15 13:11:18;;;;;;;9.88;8.18;;;35.30;47.90;;;;;;5087986;28;20043;-47
2022/08/15 13:13:43;;;;;;;8.77;7.70;;;35.00;49.20;;;;;;5089488;28;20479;-46
2022/08/15 13:16:09;;;;;;;10.77;7.90;;;34.70;49.40;;;;;;5081598;28;20024;-47